• Join FlightAware (Why Join?)
  • Login
  • US Flag 
08:47AM EDT


 

Airport Tracker/Info


-or-


 

Live Flight TrackerFlight Track Log ✈ DAL1562 ✈ 16-Apr-2013 ✈ KDTW - KPHL

Flight Track Log - Related Links

Times and Time Zones

All times are in EDT time to prevent confusion due to time zone crossing. See the DAL1562 flight status page for this flight to view local times or setup timezone preferences in your user account.

Time Position Orientation Groundspeed Altitude Reporting Facility
EDT Latitude Longitude Course Direction KTS MPH feet Rate Location/Type
02:22PM 42.1994 -83.3581 95° East 160 184 1,400  Level Cleveland Center
02:24PM 42.1181 -83.3572 180° South 262 302 4,300 2,700 Climbing Cleveland Center
02:25PM 42.2167 -82.7685 90° East  Level FlightAware Approximate
02:25PM 42.0564 -83.3294 162° South 298 343 7,400  Level Cleveland Center
02:26PM 42.2167 -82.5737 90° East  Level FlightAware Approximate
02:26PM 42.0592 -83.2122 88° East 319 367 9,900  Level Cleveland Center
02:27PM 42.2133 -82.3790 95° East  Level FlightAware Approximate
02:27PM 42.0828 -83.0872 76° East 312 359 10,000  Level Cleveland Center
02:28PM 42.2012 -82.1849 95° East  Level FlightAware Approximate
02:28PM 42.1125 -82.9597 73° East 334 384 11,200  Level Cleveland Center
02:29PM 42.1469 -82.8069 73° East 377 434 13,600 2,400 Climbing Cleveland Center
02:30PM 42.1789 -82.6511 74° East 404 465 16,000 2,280 Climbing Cleveland Center
02:31PM 42.2131 -82.4894 74° East 424 488 18,200 1,920 Climbing Cleveland Center
02:32PM 42.2136 -82.3156 90° East 450 518 19,900 1,500 Climbing Cleveland Center
02:33PM 42.2053 -82.1697 94° East 460 529 21,300 1,740 Climbing Cleveland Center
02:34PM 42.1811 -81.9506 98° East 482 555 23,400 2,460 Climbing Cleveland Center
02:35PM 42.0950 -81.8283 133° Southeast 455 524 26,300 2,280 Climbing Cleveland Center
02:36PM 42.0003 -81.7175 139° Southeast 445 512 28,000 1,560 Climbing Cleveland Center
02:37PM 41.9033 -81.6097 140° Southeast 445 512 29,500 1,320 Climbing Cleveland Center
02:38PM 41.8083 -81.4997 139° Southeast 451 519 30,700 720 Climbing Cleveland Center
02:39PM 41.7133 -81.3869 138° Southeast 456 525 31,000 240 Climbing Cleveland Center
02:40PM 41.6119 -81.2719 140° Southeast 461 531 31,200 480 Climbing Cleveland Center
02:41PM 41.5228 -81.1711 140° Southeast 466 536 32,000 900 Climbing Cleveland Center
02:42PM 41.4317 -81.0483 135° Southeast 466 536 33,000 480 Climbing Cleveland Center
02:43PM 41.3425 -80.9233 134° Southeast 461 531 33,000  Level Cleveland Center
02:44PM 41.2531 -80.7986 134° Southeast 461 531 33,000  Level Cleveland Center
02:45PM 41.1553 -80.6631 134° Southeast 461 531 33,000  Level Cleveland Center
02:46PM 41.0783 -80.5556 133° Southeast 461 531 33,000  Level Cleveland Center
02:47PM 40.9864 -80.4319 135° Southeast 461 531 33,000  Level Cleveland Center
02:48PM 40.8964 -80.3083 134° Southeast 461 531 33,000  Level Cleveland Center
02:49PM 40.8064 -80.1661 130° Southeast 461 531 33,000  Level Cleveland Center
02:50PM 40.7494 -80.0075 115° Southeast 466 536 33,000  Level Cleveland Center
02:51PM 40.6944 -79.8492 115° Southeast 471 542 33,000 -180 Level Cleveland Center
02:52PM 40.6369 -79.6911 116° Southeast 471 542 32,700 -540 Descending Cleveland Center
02:53PM 40.5814 -79.5361 115° Southeast 466 536 32,000 -360 Descending Cleveland Center
02:54PM 40.5236 -79.3814 116° Southeast 466 536 32,000 -360 Level Cleveland Center
02:55PM 40.4656 -79.2267 116° Southeast 466 536 31,300 -900 Descending Cleveland Center
02:56PM 40.4075 -79.0781 117° Southeast 466 536 30,300 -1,020 Descending Cleveland Center
02:57PM 40.3511 -78.9214 115° Southeast 466 536 29,300 -660 Descending Cleveland Center
02:58PM 40.3297 -78.7475 99° East 459 528 29,000 -720 Descending Cleveland Center
02:59PM 40.3289 -78.5731 90° East 464 534 27,900 -1,200 Descending Cleveland Center
03:00PM 40.3258 -78.4125 91° East 481 554 26,600 -1,080 Descending Cleveland Center
03:01PM 40.3181 -78.0917 92° East 488 562 25,000 -600 Descending New York Center
03:02PM 40.3142 -77.9142 92° East 483 556 25,000  Level New York Center
03:03PM 40.3142 -77.7425 90° East 483 556 25,000 -720 Level New York Center
03:04PM 40.3033 -77.5672 95° East 483 556 23,600 -1,980 Descending New York Center
03:05PM 40.2797 -77.3964 100° East 478 550 21,100 -1,920 Descending New York Center
03:06PM 40.2536 -77.2306 102° East 468 539 19,800 -1,080 Descending New York Center
03:07PM 40.2328 -77.0736 100° East 455 524 19,000 -900 Descending New York Center
03:08PM 40.2100 -76.9139 101° East 437 503 18,000 -840 Descending New York Center
03:09PM 40.1889 -76.7542 100° East 445 512 17,300 -1,380 Descending New York Center
03:10PM 40.1769 -76.6175 96° East 433 498 15,200 -2,640 Descending New York Center
03:11PM 40.1581 -76.4528 98° East 418 481 12,200 -2,640 Descending New York Center
03:12PM 40.1500 -76.3711 97° East 410 472 11,300 -1,440 Descending FAA TRACON SMA TRACON (SMA)
03:12PM 40.1447 -76.3281 99° East 400 460 11,000 -900 Descending FAA TRACON SMA TRACON (SMA)
03:12PM 40.1414 -76.2892 96° East 388 447 10,700 -900 Descending FAA TRACON SMA TRACON (SMA)
03:13PM 40.1342 -76.2389 101° East 349 402 10,400 -780 Descending FAA TRACON SMA TRACON (SMA)
03:13PM 40.1303 -76.2011 98° East 337 388 10,200 -780 Descending FAA TRACON SMA TRACON (SMA)
03:13PM 40.1278 -76.1586 94° East 325 374 9,900 -1,200 Descending FAA TRACON SMA TRACON (SMA)
03:14PM 40.1236 -76.1217 98° East 316 364 9,400 -1,380 Descending FAA TRACON SMA TRACON (SMA)
03:14PM 40.1200 -76.0875 98° East 309 356 9,000 -1,200 Descending FAA TRACON SMA TRACON (SMA)
03:14PM 40.1167 -76.0539 97° East 306 352 8,600 -1,500 Descending FAA TRACON SMA TRACON (SMA)
03:15PM 40.1122 -76.0133 98° East 302 348 8,000 -900 Descending FAA TRACON SMA TRACON (SMA)
03:15PM 40.1094 -75.9781 96° East 302 348 8,000  Level FAA TRACON SMA TRACON (SMA)
03:15PM 40.1061 -75.9483 98° East 301 346 8,000  Level FAA TRACON SMA TRACON (SMA)
03:16PM 40.0997 -75.9042 101° East 302 348 8,000  Level FAA TRACON SMA TRACON (SMA)
03:16PM 40.0961 -75.8708 98° East 302 348 8,000  Level FAA TRACON SMA TRACON (SMA)
03:16PM 40.0922 -75.8350 98° East 302 348 8,000  Level FAA TRACON SMA TRACON (SMA)
03:17PM 40.0875 -75.7958 99° East 301 346 8,000 -300 Level FAA TRACON SMA TRACON (SMA)
03:17PM 40.0839 -75.7639 98° East 300 345 7,800 -900 Descending FAA TRACON SMA TRACON (SMA)
03:17PM 40.0806 -75.7292 97° East 301 346 7,400 -1,080 Descending FAA TRACON SMA TRACON (SMA)
03:18PM 40.0786 -75.6869 93° East 303 349 7,100 -900 Descending FAA TRACON SMA TRACON (SMA)
03:18PM 40.0772 -75.6536 93° East 300 345 6,800 -1,080 Descending FAA TRACON SMA TRACON (SMA)
03:18PM 40.0756 -75.6131 93° East 299 344 6,400 -1,080 Descending FAA TRACON SMA TRACON (SMA)
03:19PM 40.0747 -75.5808 92° East 295 339 6,100 -1,080 Descending FAA TRACON SMA TRACON (SMA)
03:19PM 40.0725 -75.5467 95° East 293 337 5,700 -1,080 Descending FAA TRACON SMA TRACON (SMA)
03:19PM 40.0722 -75.5142 91° East 292 336 5,400 -900 Descending FAA TRACON SMA TRACON (SMA)
03:20PM 40.0711 -75.4756 92° East 289 333 5,100 -600 Descending FAA TRACON SMA TRACON (SMA)
03:20PM 40.0722 -75.4417 88° East 289 333 5,000 -180 Descending FAA TRACON SMA TRACON (SMA)
03:20PM 40.0725 -75.4089 89° East 291 335 5,000  Level FAA TRACON SMA TRACON (SMA)
03:21PM 40.0736 -75.3686 88° East 291 335 5,000  Level FAA TRACON SMA TRACON (SMA)
03:21PM 40.0739 -75.3344 89° East 292 336 5,000  Level FAA TRACON SMA TRACON (SMA)
03:21PM 40.0742 -75.3025 89° East 290 334 5,000  Level FAA TRACON SMA TRACON (SMA)
03:22PM 40.0747 -75.2706 89° East 287 330 5,000 -480 Level FAA TRACON SMA TRACON (SMA)
03:22PM 40.0664 -75.2350 107° East 275 316 4,700 -900 Descending FAA TRACON SMA TRACON (SMA)
03:22PM 40.0489 -75.2167 141° Southeast 251 289 4,400 -1,080 Descending FAA TRACON SMA TRACON (SMA)
03:23PM 40.0317 -75.2047 152° Southeast 250 288 4,000 -600 Descending FAA TRACON SMA TRACON (SMA)
03:23PM 40.0086 -75.1906 155° Southeast 210 242 4,000  Level FAA TRACON SMA TRACON (SMA)
03:23PM 39.9931 -75.1833 160° South 196 226 4,000  Level FAA TRACON SMA TRACON (SMA)
03:24PM 39.9769 -75.1772 164° South 185 213 4,000  Level FAA TRACON SMA TRACON (SMA)
03:24PM 39.9583 -75.1694 162° South 187 215 4,000  Level FAA TRACON SMA TRACON (SMA)
03:24PM 39.9436 -75.1628 161° South 183 211 4,000  Level FAA TRACON SMA TRACON (SMA)
03:25PM 39.9269 -75.1553 161° South 183 211 4,000  Level FAA TRACON SMA TRACON (SMA)
03:25PM 39.9097 -75.1481 162° South 183 211 4,000  Level FAA TRACON SMA TRACON (SMA)
03:25PM 39.8947 -75.1414 161° South 185 213 4,000  Level FAA TRACON SMA TRACON (SMA)
03:26PM 39.8797 -75.1344 160° South 184 212 4,000  Level FAA TRACON SMA TRACON (SMA)
03:26PM 39.8642 -75.1286 164° South 187 215 4,000  Level FAA TRACON SMA TRACON (SMA)
03:26PM 39.8450 -75.1211 163° South 184 212 4,000  Level FAA TRACON SMA TRACON (SMA)
03:27PM 39.8311 -75.1147 161° South 183 211 4,000  Level FAA TRACON SMA TRACON (SMA)
03:27PM 39.8119 -75.1075 164° South 181 208 4,000  Level FAA TRACON SMA TRACON (SMA)
03:27PM 39.7964 -75.1014 163° South 182 209 4,000 120 Level FAA TRACON SMA TRACON (SMA)
03:28PM 39.7825 -75.0906 149° Southeast 191 220 4,100  Climbing FAA TRACON SMA TRACON (SMA)
03:28PM 39.7783 -75.0692 104° East 209 241 4,000 -180 Descending FAA TRACON SMA TRACON (SMA)
03:28PM 39.7833 -75.0400 77° East 219 252 4,000 -180 Level FAA TRACON SMA TRACON (SMA)
03:29PM 39.7881 -75.0183 74° East 219 252 3,900 -600 Descending FAA TRACON SMA TRACON (SMA)
03:29PM 39.7928 -74.9928 76° East 216 249 3,600 -1,080 Descending FAA TRACON SMA TRACON (SMA)
03:29PM 39.7981 -74.9644 76° East 213 245 3,200 -780 Descending FAA TRACON SMA TRACON (SMA)
03:30PM 39.8083 -74.9456 55° Northeast 224 258 3,100 -180 Descending FAA TRACON SMA TRACON (SMA)
03:30PM 39.8297 -74.9417 North 202 232 3,100 -180 Level FAA TRACON SMA TRACON (SMA)
03:30PM 39.8431 -74.9561 320° Northwest 207 238 3,000  Descending FAA TRACON SMA TRACON (SMA)
03:31PM 39.8456 -74.9769 279° West 193 222 3,100 120 Climbing FAA TRACON SMA TRACON (SMA)
03:31PM 39.8464 -74.9981 273° West 189 217 3,100 -300 Level FAA TRACON SMA TRACON (SMA)
03:31PM 39.8467 -75.0239 271° West 187 215 2,900 -780 Descending FAA TRACON SMA TRACON (SMA)
03:32PM 39.8472 -75.0447 272° West 189 217 2,600 -780 Descending FAA TRACON SMA TRACON (SMA)
03:32PM 39.8503 -75.0664 280° West 196 226 2,400 -780 Descending FAA TRACON SMA TRACON (SMA)
03:32PM 39.8544 -75.0919 282° West 187 215 2,100 -780 Descending FAA TRACON SMA TRACON (SMA)
03:33PM 39.8589 -75.1111 287° West 187 215 1,900 -600 Descending FAA TRACON SMA TRACON (SMA)
03:33PM 39.8672 -75.1256 307° West 166 191 1,700 -600 Descending FAA TRACON SMA TRACON (SMA)
03:33PM 39.8753 -75.1444 299° West 160 184 1,500 -600 Descending FAA TRACON SMA TRACON (SMA)
03:34PM 39.8772 -75.1617 278° West 137 158 1,300 -600 Descending FAA TRACON SMA TRACON (SMA)
03:34PM 39.8772 -75.1772 270° West 170 196 1,100 -780 Descending FAA TRACON SMA TRACON (SMA)
03:34PM 39.8761 -75.1986 266° West 153 176 800 -900 Descending FAA TRACON SMA TRACON (SMA)
03:35PM 39.8731 -75.2131 255° West 136 157 500 -720 Descending FAA TRACON SMA TRACON (SMA)
03:35PM 39.8700 -75.2272 254° West 131 151 300 -540 Descending FAA TRACON SMA TRACON (SMA)
03:38PM 39.8667 -75.2333 270° West  Level FlightAware Approximate